Schlegal, Oklahoma
Current Conditions -  °F | °C
As of 8:15 AM on Wednesday 26 Nov 2014 (Local Time) from KCUH Reporting Station
Clear Clear  
Wind Chill: 35°   Ceiling: Unl
Heat Index: 41°   Visibility: 10mi
Dew Point: 34°   Wind: 9mph
Humidity: 76%   Direction: 310°NW
Pressure: 30.09"   Gusts: NA
Location:  35.9968°N, 96.7376°W
Report Text: KCUH 261415Z AUTO 31008KT 10SM CLR 05/01 A3009 RMK AO2
Loading
Personal Weather Stations






























Interactive Weather Map New forecast layout! Learn more

10-Day Weather Forecast

Advertisements
Track Severe Weather on mobile